createdAt,value
2018-04-28T00:01:40.144Z,4.17
2018-04-28T00:04:07.074Z,4.33
2018-04-28T00:06:34.786Z,4.10
2018-04-28T00:09:01.757Z,3.97
2018-04-28T00:11:28.687Z,4.37
2018-04-28T00:13:55.668Z,4.20
2018-04-28T00:16:24.576Z,3.93
2018-04-28T00:18:59.159Z,4.50
2018-04-28T00:21:34.797Z,4.53
2018-04-28T00:24:01.958Z,4.27
2018-04-28T00:26:29.152Z,4.30
2018-04-28T00:29:07.127Z,4.47
2018-04-28T00:31:49.523Z,4.53
2018-04-28T00:34:16.493Z,3.97
2018-04-28T00:39:49.774Z,4.50
2018-04-28T00:42:16.713Z,4.33
2018-04-28T00:44:48.599Z,4.80
2018-04-28T00:47:17.500Z,4.80
2018-04-28T00:49:57.131Z,5.20
2018-04-28T00:52:26.696Z,5.13
2018-04-28T00:54:57.363Z,4.97
2018-04-28T00:58:08.724Z,5.03
2018-04-28T01:00:53.209Z,5.00
2018-04-28T01:03:27.084Z,5.70
2018-04-28T01:05:54.017Z,5.23
2018-04-28T01:08:35.964Z,5.37
2018-04-28T01:11:03.748Z,5.50
2018-04-28T01:13:35.324Z,5.27
2018-04-28T01:16:02.290Z,5.43
2018-04-28T01:18:29.221Z,5.43
2018-04-28T01:21:07.107Z,5.60
2018-04-28T01:23:38.878Z,5.73
2018-04-28T01:26:20.736Z,5.57
2018-04-28T01:28:47.742Z,5.07
2018-04-28T01:31:27.576Z,5.70
2018-04-28T01:34:14.277Z,5.30
2018-04-28T01:37:18.972Z,5.17
2018-04-28T01:39:48.901Z,5.53
2018-04-28T01:42:15.829Z,5.53
2018-04-28T01:44:53.274Z,6.07
2018-04-28T01:47:23.236Z,5.03
2018-04-28T01:49:59.489Z,5.17
2018-04-28T01:52:40.257Z,5.47
2018-04-28T01:55:23.851Z,4.97
2018-04-28T02:01:07.452Z,5.60
2018-04-28T02:04:01.226Z,6.10
2018-04-28T02:06:52.021Z,5.80
2018-04-28T02:09:19.936Z,5.83
2018-04-28T02:11:57.481Z,5.43
2018-04-28T02:14:29.471Z,5.30
2018-04-28T02:16:58.132Z,5.70
2018-04-28T02:19:39.672Z,5.20
2018-04-28T02:22:33.313Z,5.07
2018-04-28T02:28:04.765Z,5.80
2018-04-28T02:30:48.240Z,6.17
2018-04-28T02:33:15.236Z,5.93
2018-04-28T02:35:50.145Z,6.00
2018-04-28T02:38:34.765Z,5.10
2018-04-28T02:41:08.029Z,5.47
2018-04-28T02:44:00.633Z,5.60
2018-04-28T02:46:34.621Z,5.50
2018-04-28T02:49:21.978Z,5.73
2018-04-28T02:51:58.840Z,5.80
2018-04-28T02:54:26.553Z,6.07
2018-04-28T02:57:02.018Z,6.30
2018-04-28T02:59:41.951Z,5.93
2018-04-28T03:02:16.469Z,6.03
2018-04-28T03:04:47.613Z,6.40
2018-04-28T03:10:22.129Z,6.77
2018-04-28T03:12:49.048Z,6.23
2018-04-28T03:15:16.717Z,7.00
2018-04-28T03:17:46.389Z,5.43
2018-04-28T03:20:19.172Z,6.60
2018-04-28T03:22:50.056Z,6.37
2018-04-28T03:25:18.739Z,6.33
2018-04-28T03:27:56.021Z,6.67
2018-04-28T03:30:41.300Z,6.37
2018-04-28T03:33:12.700Z,6.37
2018-04-28T03:35:48.365Z,6.30
2018-04-28T03:41:24.604Z,6.90
2018-04-28T03:43:57.761Z,6.30
2018-04-28T03:46:24.691Z,6.83
2018-04-28T03:48:56.163Z,6.53
2018-04-28T03:51:28.636Z,7.53
2018-04-28T03:54:04.891Z,7.70
2018-04-28T03:56:33.839Z,8.00
2018-04-28T03:59:18.964Z,7.30
2018-04-28T04:02:04.358Z,7.20
2018-04-28T04:04:37.897Z,7.37
2018-04-28T04:07:22.473Z,7.53
2018-04-28T04:09:49.421Z,7.07
2018-04-28T04:15:22.452Z,7.30
2018-04-28T04:21:20.204Z,7.87
2018-04-28T04:27:16.402Z,7.03
2018-04-28T04:29:45.213Z,6.60
2018-04-28T04:32:13.135Z,6.40
2018-04-28T04:37:53.991Z,6.33
2018-04-28T04:44:23.033Z,6.43
2018-04-28T04:47:10.608Z,6.27
2018-04-28T04:49:44.100Z,6.33
2018-04-28T04:52:12.033Z,6.67
2018-04-28T04:58:13.062Z,6.57
2018-04-28T05:03:56.687Z,6.40
2018-04-28T05:09:41.926Z,6.10
2018-04-28T05:12:23.819Z,5.93
2018-04-28T05:15:08.883Z,6.20
2018-04-28T05:21:05.227Z,6.70
2018-04-28T05:26:52.232Z,6.50
2018-04-28T05:29:59.072Z,5.90
2018-04-28T05:32:35.690Z,5.70
2018-04-28T05:35:11.510Z,6.03
2018-04-28T05:37:55.982Z,5.83
2018-04-28T05:44:16.468Z,6.30
2018-04-28T05:47:16.352Z,6.10
2018-04-28T05:53:00.176Z,6.23
2018-04-28T05:55:46.679Z,5.83
2018-04-28T05:58:36.187Z,6.40
2018-04-28T06:01:22.681Z,6.60
2018-04-28T06:07:25.356Z,6.90
2018-04-28T06:13:36.314Z,6.23
2018-04-28T06:22:22.247Z,7.20
2018-04-28T06:24:49.151Z,5.93
2018-04-28T06:27:16.828Z,6.90
2018-04-28T06:29:43.748Z,6.43
2018-04-28T06:32:11.697Z,6.97
2018-04-28T06:34:38.951Z,5.90
2018-04-28T06:37:05.931Z,6.83
2018-04-28T06:39:35.216Z,6.23
2018-04-28T06:42:02.823Z,5.97
2018-04-28T06:44:29.766Z,5.87
2018-04-28T06:46:56.877Z,6.10
2018-04-28T06:49:23.796Z,6.23
2018-04-28T06:51:50.670Z,6.73
2018-04-28T06:54:18.050Z,6.47
2018-04-28T06:56:45.710Z,6.17
2018-04-28T06:59:13.411Z,6.00
2018-04-28T07:01:40.480Z,6.13
2018-04-28T07:04:07.431Z,6.17
2018-04-28T07:06:34.351Z,5.77
2018-04-28T07:09:01.421Z,6.47
2018-04-28T07:11:28.357Z,6.30
2018-04-28T07:13:56.025Z,6.50
2018-04-28T07:16:23.018Z,5.73
2018-04-28T07:18:49.888Z,6.20
2018-04-28T07:21:16.820Z,6.23
2018-04-28T07:23:43.895Z,6.17
2018-04-28T07:26:10.893Z,6.00
2018-04-28T07:28:38.579Z,6.33
2018-04-28T07:31:05.695Z,5.90
2018-04-28T07:33:32.636Z,6.00
2018-04-28T07:35:59.599Z,6.50
2018-04-28T07:38:26.772Z,6.00
2018-04-28T07:40:54.446Z,5.93
2018-04-28T07:43:21.387Z,5.77
2018-04-28T07:45:48.704Z,5.70
2018-04-28T07:48:16.413Z,6.23
2018-04-28T07:50:43.895Z,6.30
2018-04-28T07:53:10.797Z,5.80
2018-04-28T07:55:38.418Z,6.63
2018-04-28T07:58:06.117Z,6.83
2018-04-28T08:00:33.782Z,6.10
2018-04-28T08:03:01.604Z,6.17
2018-04-28T08:05:28.573Z,6.10
2018-04-28T08:07:55.679Z,5.60
2018-04-28T08:10:23.445Z,5.63
2018-04-28T08:12:51.457Z,6.27
2018-04-28T08:15:19.246Z,6.50
2018-04-28T08:17:47.259Z,5.10
2018-04-28T08:20:14.208Z,5.60
2018-04-28T08:22:41.324Z,5.07
2018-04-28T08:25:09.047Z,4.80
2018-04-28T08:27:36.046Z,5.27
2018-04-28T08:30:03.779Z,5.67
2018-04-28T08:32:30.711Z,4.17
2018-04-28T08:34:58.436Z,5.20
2018-04-28T08:37:25.451Z,5.37
2018-04-28T08:39:52.393Z,4.63
2018-04-28T08:42:19.338Z,4.87
2018-04-28T08:44:46.362Z,5.97
2018-04-28T08:47:13.218Z,4.50
2018-04-28T08:49:40.096Z,4.63
2018-04-28T08:52:07.841Z,3.80
2018-04-28T08:54:34.683Z,4.13
2018-04-28T08:57:01.592Z,4.00
2018-04-28T08:59:47.490Z,4.03
2018-04-28T09:02:14.359Z,3.97
2018-04-28T09:04:41.203Z,3.83
2018-04-28T09:07:26.698Z,4.10
2018-04-28T09:09:53.640Z,4.03
2018-04-28T09:12:20.483Z,4.10
2018-04-28T09:14:47.509Z,4.27
2018-04-28T09:17:14.359Z,4.30
2018-04-28T09:19:41.966Z,3.80
2018-04-28T09:22:08.993Z,3.63
2018-04-28T09:24:36.598Z,3.90
2018-04-28T09:27:03.445Z,3.50
2018-04-28T09:29:30.565Z,4.23
2018-04-28T09:31:58.164Z,3.57
2018-04-28T09:34:25.020Z,4.47
2018-04-28T09:36:51.932Z,4.57
2018-04-28T09:39:18.811Z,4.30
2018-04-28T09:41:45.661Z,3.53
2018-04-28T09:44:12.695Z,3.57
2018-04-28T09:46:39.534Z,3.93
2018-04-28T09:49:06.364Z,3.50
2018-04-28T09:51:33.289Z,3.70
2018-04-28T09:54:00.882Z,4.37
2018-04-28T09:56:27.755Z,4.33
2018-04-28T09:58:54.671Z,3.57
2018-04-28T10:01:21.565Z,3.87
2018-04-28T10:03:53.316Z,4.17
2018-04-28T10:06:20.716Z,4.00
2018-04-28T10:08:47.583Z,4.43
2018-04-28T10:11:14.453Z,4.67
2018-04-28T10:13:43.299Z,4.00
2018-04-28T10:16:10.127Z,4.00
2018-04-28T10:18:37.702Z,3.93
2018-04-28T10:21:04.589Z,4.33
2018-04-28T10:23:31.479Z,4.37
2018-04-28T10:25:59.081Z,4.60
2018-04-28T10:28:26.108Z,4.43
2018-04-28T10:30:53.165Z,4.77
2018-04-28T10:33:19.959Z,3.60
2018-04-28T10:35:47.048Z,4.00
2018-04-28T10:38:13.889Z,3.47
2018-04-28T10:40:40.735Z,3.27
2018-04-28T10:43:07.882Z,3.60
2018-04-28T10:45:34.726Z,3.57
2018-04-28T10:48:01.564Z,3.43
2018-04-28T10:50:29.349Z,2.70
2018-04-28T10:52:56.180Z,2.73
2018-04-28T10:55:23.061Z,2.67
2018-04-28T10:57:49.944Z,2.83
2018-04-28T11:00:16.795Z,3.43
2018-04-28T11:02:44.386Z,3.27
2018-04-28T11:05:11.284Z,3.03
2018-04-28T11:07:38.165Z,2.63
2018-04-28T11:10:05.008Z,2.50
2018-04-28T11:12:32.055Z,2.50
2018-04-28T11:14:58.905Z,2.90
2018-04-28T11:17:25.751Z,2.80
2018-04-28T11:19:52.867Z,2.60
2018-04-28T11:22:19.688Z,3.27
2018-04-28T11:24:46.530Z,3.17
2018-04-28T11:27:13.547Z,3.07
2018-04-28T11:29:40.388Z,2.43
2018-04-28T11:32:07.298Z,2.70
2018-04-28T11:34:34.179Z,2.70
2018-04-28T11:37:01.024Z,3.20
2018-04-28T11:39:27.863Z,2.83
2018-04-28T11:41:54.750Z,2.70
2018-04-28T11:44:21.582Z,2.43
2018-04-28T11:46:48.440Z,2.33
2018-04-28T11:49:15.620Z,2.97
2018-04-28T11:51:42.504Z,2.20
2018-04-28T11:54:09.339Z,2.10
2018-04-28T11:56:36.361Z,2.40
2018-04-28T11:59:03.232Z,2.90
2018-04-28T12:01:30.089Z,2.50
2018-04-28T12:03:57.133Z,3.00
2018-04-28T12:06:23.995Z,3.50
2018-04-28T12:08:50.852Z,2.80
2018-04-28T12:11:17.735Z,2.70
2018-04-28T12:13:45.337Z,2.50
2018-04-28T12:16:12.184Z,4.03
2018-04-28T12:18:39.084Z,2.57
2018-04-28T12:21:06.685Z,2.80
2018-04-28T12:23:33.595Z,3.73
2018-04-28T12:26:01.245Z,3.70
2018-04-28T12:28:28.327Z,3.27
2018-04-28T12:30:55.172Z,3.00
2018-04-28T12:33:22.073Z,2.50
2018-04-28T12:35:48.956Z,2.30
2018-04-28T12:38:16.089Z,2.33
2018-04-28T12:40:43.095Z,2.20
2018-04-28T12:43:10.037Z,2.57
2018-04-28T12:45:37.013Z,2.63
2018-04-28T12:48:04.192Z,2.00
2018-04-28T12:50:31.819Z,2.57
2018-04-28T12:52:58.877Z,2.57
2018-04-28T12:55:25.788Z,2.60
2018-04-28T12:57:52.747Z,2.67
2018-04-28T13:00:19.662Z,2.60
2018-04-28T13:02:47.369Z,3.23
2018-04-28T13:05:14.226Z,2.43
2018-04-28T13:07:41.171Z,2.27
2018-04-28T13:10:08.150Z,2.57
2018-04-28T13:12:35.013Z,2.97
2018-04-28T13:15:01.865Z,3.03
2018-04-28T13:17:29.137Z,2.20
2018-04-28T13:19:55.979Z,2.50
2018-04-28T13:22:22.952Z,2.53
2018-04-28T13:24:50.350Z,2.73
2018-04-28T13:27:17.257Z,2.90
2018-04-28T13:29:44.256Z,2.90
2018-04-28T13:32:11.343Z,2.90
2018-04-28T13:34:38.205Z,2.10
2018-04-28T13:37:05.055Z,2.73
2018-04-28T13:39:31.980Z,2.67
2018-04-28T13:41:58.833Z,2.40
2018-04-28T13:44:25.688Z,2.67
2018-04-28T13:46:52.733Z,2.43
2018-04-28T13:49:19.573Z,2.73
2018-04-28T13:51:46.411Z,2.83
2018-04-28T13:54:13.312Z,2.60
2018-04-28T13:56:40.146Z,2.50
2018-04-28T13:59:07.001Z,2.33
2018-04-28T14:01:33.896Z,2.50
2018-04-28T14:04:00.740Z,2.57
2018-04-28T14:06:27.625Z,2.50
2018-04-28T14:08:54.571Z,2.20
2018-04-28T14:11:21.419Z,1.63
2018-04-28T14:13:48.260Z,2.53
2018-04-28T14:16:15.247Z,2.27
2018-04-28T14:18:42.165Z,2.53
2018-04-28T14:21:09.000Z,2.13
2018-04-28T14:23:35.905Z,2.63
2018-04-28T14:26:02.940Z,2.17
2018-04-28T14:28:29.789Z,2.40
2018-04-28T14:30:56.719Z,2.90
2018-04-28T14:33:24.338Z,2.80
2018-04-28T14:35:51.232Z,2.67
2018-04-28T14:38:18.123Z,2.80
2018-04-28T14:40:45.726Z,3.37
2018-04-28T14:43:12.572Z,2.33
2018-04-28T14:45:39.464Z,2.83
2018-04-28T14:48:07.054Z,2.40
2018-04-28T14:50:33.891Z,2.33
2018-04-28T14:53:01.659Z,2.73
2018-04-28T14:55:28.510Z,2.70
2018-04-28T14:57:55.371Z,2.37
2018-04-28T15:00:22.293Z,2.43
2018-04-28T15:02:49.141Z,2.37
2018-04-28T15:05:15.982Z,2.93
2018-04-28T15:07:42.881Z,2.73
2018-04-28T15:10:09.734Z,3.33
2018-04-28T15:12:36.616Z,3.10
2018-04-28T15:15:03.703Z,3.00
2018-04-28T15:17:30.564Z,2.60
2018-04-28T15:19:57.412Z,3.00
2018-04-28T15:22:24.485Z,3.60
2018-04-28T15:24:52.068Z,3.33
2018-04-28T15:27:18.985Z,3.00
2018-04-28T15:29:46.825Z,3.23
2018-04-28T15:32:13.672Z,3.10
2018-04-28T15:34:40.528Z,3.13
2018-04-28T15:37:07.528Z,3.40
2018-04-28T15:39:34.375Z,2.70
2018-04-28T15:42:01.212Z,2.67
2018-04-28T15:44:28.195Z,3.10
2018-04-28T15:46:55.035Z,3.17
2018-04-28T15:49:21.879Z,2.83
2018-04-28T15:51:48.942Z,3.40
2018-04-28T15:54:15.791Z,3.03
2018-04-28T15:56:42.642Z,2.90
2018-04-28T15:59:09.625Z,3.00
2018-04-28T16:01:36.468Z,3.10
2018-04-28T16:04:03.353Z,2.80
2018-04-28T16:06:30.463Z,2.90
2018-04-28T16:08:57.311Z,2.93
2018-04-28T16:11:24.157Z,3.00
2018-04-28T16:13:51.080Z,3.70
2018-04-28T16:16:18.664Z,3.00
2018-04-28T16:18:45.513Z,2.77
2018-04-28T16:21:12.568Z,2.47
2018-04-28T16:23:39.415Z,3.43
2018-04-28T16:26:07.001Z,4.00
2018-04-28T16:28:33.975Z,3.97
2018-04-28T16:31:00.817Z,3.83
2018-04-28T16:33:28.415Z,2.67
2018-04-28T16:35:55.382Z,2.20
2018-04-28T16:38:22.228Z,3.03
2018-04-28T16:40:49.084Z,2.37
2018-04-28T16:43:16.015Z,2.50
2018-04-28T16:45:42.868Z,3.00
2018-04-28T16:48:09.719Z,2.97
2018-04-28T16:50:36.905Z,2.60
2018-04-28T16:53:04.744Z,2.67
2018-04-28T16:55:32.367Z,2.70
2018-04-28T16:57:59.252Z,2.20
2018-04-28T17:00:26.111Z,2.60
2018-04-28T17:02:52.981Z,3.23
2018-04-28T17:05:20.612Z,3.03
2018-04-28T17:07:47.472Z,2.60
2018-04-28T17:10:15.076Z,2.80
2018-04-28T17:12:41.980Z,2.33
2018-04-28T17:15:08.836Z,3.07
2018-04-28T17:17:52.807Z,2.80
2018-04-28T17:20:19.693Z,3.67
2018-04-28T17:22:46.576Z,7.50
2018-04-28T17:25:14.255Z,3.13
2018-04-28T17:27:41.107Z,3.40
2018-04-28T17:30:08.096Z,2.87
2018-04-28T17:32:35.015Z,3.20
2018-04-28T17:35:01.863Z,2.90
2018-04-28T17:37:28.713Z,2.80
2018-04-28T17:39:55.608Z,3.20
2018-04-28T17:42:22.521Z,3.20
2018-04-28T17:44:59.367Z,3.37
2018-04-28T17:47:26.215Z,2.70
2018-04-28T17:49:53.070Z,3.40
2018-04-28T17:52:20.068Z,2.93
2018-04-28T17:54:47.675Z,3.47
2018-04-28T17:57:14.528Z,3.43
2018-04-28T17:59:41.455Z,3.23
2018-04-28T18:02:08.356Z,3.73
2018-04-28T18:04:35.201Z,3.60
2018-04-28T18:07:02.104Z,3.73
2018-04-28T18:09:28.975Z,3.90
2018-04-28T18:11:55.825Z,4.20
2018-04-28T18:14:22.712Z,4.70
2018-04-28T18:16:49.563Z,4.40
2018-04-28T18:19:16.447Z,4.80
2018-04-28T18:21:43.337Z,5.00
2018-04-28T18:24:10.924Z,5.10
2018-04-28T18:26:37.781Z,5.33
2018-04-28T18:29:04.697Z,4.97
2018-04-28T18:31:31.608Z,5.93
2018-04-28T18:33:58.512Z,4.93
2018-04-28T18:36:26.221Z,5.57
2018-04-28T18:38:53.073Z,5.70
2018-04-28T18:41:20.687Z,5.93
2018-04-28T18:43:47.619Z,6.30
2018-04-28T18:46:14.761Z,5.60
2018-04-28T18:48:41.572Z,6.53
2018-04-28T18:51:08.500Z,5.93
2018-04-28T18:53:35.374Z,6.30
2018-04-28T18:56:02.987Z,5.57
2018-04-28T18:58:29.899Z,6.70
2018-04-28T19:00:56.743Z,6.77
2018-04-28T19:03:23.591Z,6.13
2018-04-28T19:05:50.541Z,7.30
2018-04-28T19:08:17.376Z,6.13
2018-04-28T19:10:44.253Z,6.90
2018-04-28T19:13:11.152Z,6.63
2018-04-28T19:15:38.750Z,7.30
2018-04-28T19:18:05.617Z,6.73
2018-04-28T19:20:32.524Z,7.30
2018-04-28T19:22:59.363Z,6.80
2018-04-28T19:25:26.211Z,6.60
2018-04-28T19:27:53.137Z,7.33
2018-04-28T19:30:20.756Z,7.87
2018-04-28T19:32:47.663Z,7.10
2018-04-28T19:35:14.556Z,7.87
2018-04-28T19:37:42.183Z,8.43
2018-04-28T19:40:09.019Z,7.87
2018-04-28T19:42:36.928Z,7.23
2018-04-28T19:45:04.001Z,8.07
2018-04-28T19:47:30.847Z,8.27
2018-04-28T19:49:57.736Z,8.17
2018-04-28T19:52:25.328Z,8.50
2018-04-28T19:54:52.180Z,8.43
2018-04-28T19:57:19.065Z,9.00
2018-04-28T19:59:46.656Z,9.40
2018-04-28T20:02:13.535Z,8.03
2018-04-28T20:04:40.524Z,8.93
2018-04-28T20:07:08.110Z,8.63
2018-04-28T20:09:34.951Z,8.83
2018-04-28T20:12:01.946Z,9.50
2018-04-28T20:14:28.795Z,9.43
2018-04-28T20:16:55.640Z,9.63
2018-04-28T20:19:22.533Z,9.33
2018-04-28T20:21:49.425Z,9.27
2018-04-28T20:24:34.828Z,9.73
2018-04-28T20:27:02.454Z,9.07
2018-04-28T20:29:29.284Z,10.07
2018-04-28T20:31:56.176Z,9.73
2018-04-28T20:34:23.837Z,9.70
2018-04-28T20:36:50.766Z,10.60
2018-04-28T20:39:17.650Z,10.30
2018-04-28T20:41:44.498Z,9.23
2018-04-28T20:44:11.372Z,9.60
2018-04-28T20:46:38.255Z,9.43
2018-04-28T20:49:05.851Z,9.93
2018-04-28T20:51:32.699Z,9.93
2018-04-28T20:53:59.697Z,10.73
2018-04-28T20:56:26.536Z,10.37
2018-04-28T20:58:53.405Z,8.50
2018-04-28T21:01:21.072Z,10.60
2018-04-28T21:03:48.752Z,10.37
2018-04-28T21:06:15.599Z,10.13
2018-04-28T21:08:42.485Z,10.27
2018-04-28T21:11:09.321Z,10.07
2018-04-28T21:13:36.179Z,10.07
2018-04-28T21:16:03.089Z,10.73
2018-04-28T21:18:29.925Z,10.83
2018-04-28T21:20:56.767Z,10.87
2018-04-28T21:23:23.656Z,10.40
2018-04-28T21:25:50.520Z,10.10
2018-04-28T21:28:18.180Z,12.00
2018-04-28T21:30:45.076Z,10.90
2018-04-28T21:33:11.915Z,10.23
2018-04-28T21:35:38.868Z,11.43
2018-04-28T21:38:05.765Z,12.33
2018-04-28T21:40:32.632Z,12.50
2018-04-28T21:42:59.498Z,11.30
2018-04-28T21:45:26.418Z,11.40
2018-04-28T21:47:54.014Z,11.23
2018-04-28T21:50:20.861Z,11.47
2018-04-28T21:52:47.769Z,10.73
2018-04-28T21:55:15.352Z,13.47
2018-04-28T21:57:42.195Z,12.30
2018-04-28T22:00:09.141Z,10.97
2018-04-28T22:02:35.989Z,12.00
2018-04-28T22:05:02.911Z,12.10
2018-04-28T22:07:30.566Z,12.37
2018-04-28T22:09:58.181Z,12.47
2018-04-28T22:12:25.029Z,12.70
2018-04-28T22:14:51.909Z,12.97
2018-04-28T22:17:18.761Z,13.87
2018-04-28T22:19:46.343Z,13.27
2018-04-28T22:22:13.269Z,14.27
2018-04-28T22:24:40.861Z,13.87
2018-04-28T22:27:07.719Z,14.13
2018-04-28T22:29:34.724Z,14.20
2018-04-28T22:32:01.580Z,12.60
2018-04-28T22:34:29.187Z,13.50
2018-04-28T22:36:56.952Z,12.67
2018-04-28T22:39:23.798Z,14.27
2018-04-28T22:41:50.652Z,14.53
2018-04-28T22:44:17.555Z,13.93
2018-04-28T22:46:44.425Z,14.33
2018-04-28T22:49:11.276Z,14.07
2018-04-28T22:51:38.175Z,13.37
2018-04-28T22:54:05.771Z,13.90
2018-04-28T22:56:32.615Z,13.40
2018-04-28T22:58:59.513Z,13.60
2018-04-28T23:01:27.135Z,13.90
2018-04-28T23:03:53.998Z,12.93
2018-04-28T23:06:20.998Z,13.63
2018-04-28T23:08:47.883Z,13.43
2018-04-28T23:11:14.724Z,13.93
2018-04-28T23:13:41.607Z,14.10
2018-04-28T23:16:09.228Z,13.83
2018-04-28T23:18:36.119Z,14.57
2018-04-28T23:21:03.726Z,14.67
2018-04-28T23:23:30.575Z,13.77
2018-04-28T23:25:57.593Z,13.90
2018-04-28T23:28:24.434Z,14.23
2018-04-28T23:30:51.284Z,14.17
2018-04-28T23:33:18.282Z,14.17
2018-04-28T23:35:45.141Z,15.03
2018-04-28T23:38:12.144Z,14.17
2018-04-28T23:40:43.541Z,16.13
2018-04-28T23:43:11.135Z,16.00
2018-04-28T23:45:37.972Z,14.73
2018-04-28T23:48:05.635Z,15.63
2018-04-28T23:50:32.474Z,16.70
2018-04-28T23:53:00.115Z,15.20
2018-04-28T23:55:27.005Z,15.47
2018-04-28T23:57:53.856Z,15.53
